Time;durP1;ratioP1;P1;durP2;ratioP2;P2;SDS_P1;SDS_P2;PMS_P1;PMS_P2;Temp;Humidity;BMP_temperature;BMP_pressure;BME280_temperature;BME280_humidity;BME280_pressure;Samples;Min_cycle;Max_cycle;Signal;HPM_P1;HPM_P2
2021/08/07 00:02:16;;;;;;;2.85;1.95;;;;;;;17.18;76.56;99560.94;5131763;27;20041;-81
2021/08/07 00:04:43;;;;;;;2.13;1.90;;;;;;;17.14;76.64;99567.56;5126203;27;20124;-82
2021/08/07 00:07:10;;;;;;;3.80;1.85;;;;;;;17.10;77.16;99566.97;5142205;27;20402;-82
2021/08/07 00:09:36;;;;;;;3.42;1.70;;;;;;;17.07;77.16;99558.38;5120713;27;20043;-82
2021/08/07 00:12:04;;;;;;;2.33;1.83;;;;;;;17.11;77.77;99554.44;5139802;27;20091;-82
2021/08/07 00:14:31;;;;;;;4.43;2.08;;;;;;;17.14;77.13;99564.88;5135913;27;20043;-82
2021/08/07 00:16:58;;;;;;;2.63;1.70;;;;;;;17.15;76.90;99551.38;5131205;27;20069;-82
2021/08/07 00:19:24;;;;;;;3.25;1.70;;;;;;;17.14;76.94;99549.69;5142141;27;20051;-81
2021/08/07 00:21:51;;;;;;;2.38;1.70;;;;;;;17.21;76.91;99555.31;5148482;27;20115;-82
2021/08/07 00:24:18;;;;;;;2.40;1.50;;;;;;;17.27;76.50;99553.94;5163214;27;20115;-82
2021/08/07 00:26:44;;;;;;;2.45;1.38;;;;;;;17.29;76.25;99557.34;5173035;27;20031;-79
2021/08/07 00:29:11;;;;;;;3.80;1.60;;;;;;;17.29;76.26;99550.16;5172880;27;20109;-82
2021/08/07 00:31:38;;;;;;;2.10;1.73;;;;;;;17.32;76.27;99555.22;5170249;27;20074;-83
2021/08/07 00:34:05;;;;;;;3.40;1.77;;;;;;;17.34;76.06;99547.06;5142130;27;20053;-82
2021/08/07 00:36:34;;;;;;;2.20;1.50;;;;;;;17.33;76.24;99537.34;5155256;27;20137;-82
2021/08/07 00:39:01;;;;;;;2.38;1.60;;;;;;;17.33;75.99;99540.00;5146726;27;20073;-82
2021/08/07 00:41:27;;;;;;;2.58;1.83;;;;;;;17.34;76.20;99536.34;5157099;27;20047;-82
2021/08/07 00:43:54;;;;;;;2.50;1.67;;;;;;;17.34;76.02;99536.34;5151927;27;20043;-83
2021/08/07 00:46:22;;;;;;;2.17;1.55;;;;;;;17.35;75.94;99536.22;5157271;27;20047;-83
2021/08/07 00:48:49;;;;;;;3.10;1.70;;;;;;;17.33;76.24;99538.19;5149455;27;21684;-82
2021/08/07 00:51:17;;;;;;;2.17;1.50;;;;;;;17.34;76.24;99539.88;5135139;27;20378;-82
2021/08/07 00:53:47;;;;;;;2.25;1.42;;;;;;;17.35;76.35;99536.22;5150186;27;20066;-83
2021/08/07 00:56:14;;;;;;;2.45;1.73;;;;;;;17.37;76.07;99536.09;5165756;27;20049;-81
2021/08/07 00:58:42;;;;;;;3.78;1.70;;;;;;;17.38;76.37;99540.47;5168212;27;20102;-82
2021/08/07 01:01:14;;;;;;;2.22;1.60;;;;;;;17.41;76.34;99537.53;5163477;27;20064;-81
2021/08/07 01:03:47;;;;;;;2.65;1.80;;;;;;;17.37;76.21;99531.59;5163082;27;20095;-82
2021/08/07 01:06:21;;;;;;;2.35;1.35;;;;;;;17.40;76.18;99525.13;5170339;27;20053;-83
2021/08/07 01:09:07;;;;;;;2.65;1.50;;;;;;;17.42;76.48;99528.50;5163194;27;20039;-82
2021/08/07 01:11:46;;;;;;;3.33;1.85;;;;;;;17.44;76.52;99531.91;5164042;27;20174;-82
2021/08/07 01:14:20;;;;;;;4.03;1.80;;;;;;;17.44;76.57;99521.19;5157953;27;20043;-83
2021/08/07 01:16:49;;;;;;;2.55;1.52;;;;;;;17.44;76.08;99514.00;5152074;27;20046;-82
2021/08/07 01:19:19;;;;;;;3.17;1.98;;;;;;;17.37;76.46;99507.50;5162156;27;20047;-82
2021/08/07 01:21:54;;;;;;;3.00;1.90;;;;;;;17.27;76.99;99497.75;5162148;27;20043;-82
2021/08/07 01:24:28;;;;;;;3.75;1.90;;;;;;;17.21;77.30;99511.66;5137609;27;20059;-82
2021/08/07 01:26:57;;;;;;;3.83;2.00;;;;;;;17.16;77.75;99510.25;5136004;27;20062;-82
2021/08/07 01:29:25;;;;;;;2.40;1.83;;;;;;;17.16;78.08;99515.59;5131874;27;20134;-81
2021/08/07 01:31:52;;;;;;;2.15;1.70;;;;;;;17.16;78.27;99517.41;5144159;27;20110;-81
2021/08/07 01:34:20;;;;;;;2.28;1.60;;;;;;;17.19;78.37;99515.31;5139022;27;20043;-81
2021/08/07 01:36:48;;;;;;;4.13;1.88;;;;;;;17.26;78.33;99517.47;5144957;27;20102;-81
2021/08/07 01:39:15;;;;;;;2.15;1.55;;;;;;;17.30;78.41;99510.88;5154911;27;20034;-81
2021/08/07 01:41:42;;;;;;;5.28;2.08;;;;;;;17.32;78.45;99508.88;5156627;27;20028;-81
2021/08/07 01:44:08;;;;;;;3.15;2.20;;;;;;;17.35;78.17;99514.81;5152254;27;20033;-82
2021/08/07 01:46:46;;;;;;;2.83;1.80;;;;;;;17.37;78.46;99507.50;5155169;27;20039;-81
2021/08/07 01:49:27;;;;;;;2.50;1.60;;;;;;;17.36;78.66;99508.47;5154072;27;20123;-81
2021/08/07 01:52:11;;;;;;;4.25;1.70;;;;;;;17.29;78.75;99509.19;5157050;27;20090;-81
2021/08/07 01:54:44;;;;;;;2.83;1.75;;;;;;;17.25;79.35;99510.41;5153193;27;20047;-80
2021/08/07 01:57:16;;;;;;;2.55;2.00;;;;;;;17.26;79.49;99504.09;5153486;27;20053;-82
2021/08/07 01:59:45;;;;;;;3.55;1.80;;;;;;;17.25;79.28;99513.09;5158354;27;20034;-80
2021/08/07 02:02:14;;;;;;;5.60;2.15;;;;;;;17.23;79.26;99510.56;5146496;27;20147;-80
2021/08/07 02:04:44;;;;;;;2.95;1.83;;;;;;;17.18;79.58;99510.94;5146034;27;20086;-81
2021/08/07 02:07:11;;;;;;;3.58;1.90;;;;;;;17.19;79.93;99512.66;5168094;27;20123;-82
2021/08/07 02:09:39;;;;;;;2.33;1.80;;;;;;;17.21;80.00;99511.66;5149775;27;20050;-82
2021/08/07 02:12:07;;;;;;;3.20;1.95;;;;;;;17.22;79.54;99513.38;5157003;27;20028;-81
2021/08/07 02:14:36;;;;;;;2.33;1.58;;;;;;;17.21;79.36;99496.47;5144719;27;20111;-81
2021/08/07 02:17:05;;;;;;;2.13;1.90;;;;;;;17.26;78.77;99498.75;5128994;27;20062;-81
2021/08/07 02:19:32;;;;;;;2.55;1.85;;;;;;;17.28;78.84;99497.63;5136328;27;20403;-81
2021/08/07 02:22:00;;;;;;;3.80;1.83;;;;;;;17.25;79.08;99491.69;5147536;27;20043;-81
2021/08/07 02:24:28;;;;;;;2.00;1.70;;;;;;;17.30;78.93;99493.00;5155123;27;20039;-81
2021/08/07 02:26:59;;;;;;;3.95;1.73;;;;;;;17.25;78.58;99486.34;5158581;27;20120;-82
2021/08/07 02:29:26;;;;;;;3.63;1.98;;;;;;;17.24;79.15;99484.66;5147823;27;20107;-82
2021/08/07 02:31:54;;;;;;;2.88;1.95;;;;;;;17.23;79.43;99475.78;5162398;27;20038;-82
2021/08/07 02:34:22;;;;;;;3.47;1.73;;;;;;;17.18;79.60;99473.50;5144721;27;20116;-82
2021/08/07 02:36:52;;;;;;;3.75;2.10;;;;;;;17.10;80.11;99470.66;5129427;27;20497;-82
2021/08/07 02:39:19;;;;;;;2.47;2.20;;;;;;;17.03;80.72;99466.84;5131528;27;20050;-82
2021/08/07 02:41:47;;;;;;;2.75;1.73;;;;;;;16.97;81.21;99472.75;5133942;27;20418;-82
2021/08/07 02:44:14;;;;;;;2.30;1.88;;;;;;;16.89;81.02;99467.19;5146290;27;20134;-82
2021/08/07 02:46:42;;;;;;;4.68;1.88;;;;;;;16.83;81.47;99475.78;5130702;27;20067;-82
2021/08/07 02:49:10;;;;;;;2.53;1.63;;;;;;;16.78;81.99;99470.81;5148077;27;20043;-80
2021/08/07 02:51:40;;;;;;;5.78;1.80;;;;;;;16.78;82.41;99481.53;5144268;27;20058;-82
2021/08/07 02:54:08;;;;;;;3.38;1.80;;;;;;;16.80;82.97;99476.03;5141730;27;20043;-80
2021/08/07 02:56:35;;;;;;;2.15;1.85;;;;;;;16.84;82.90;99472.13;5138550;27;20051;-81
2021/08/07 02:59:01;;;;;;;3.30;1.70;;;;;;;16.82;82.56;99474.94;5142423;27;20082;-81
2021/08/07 03:01:28;;;;;;;2.50;1.85;;;;;;;16.79;82.79;99469.84;5131442;27;20050;-81
2021/08/07 03:03:55;;;;;;;3.65;1.70;;;;;;;16.82;83.00;99471.41;5100677;28;21420;-82
2021/08/07 03:06:24;;;;;;;2.83;1.60;;;;;;;16.84;82.75;99472.13;5110589;27;20486;-82
2021/08/07 03:08:51;;;;;;;3.95;1.90;;;;;;;16.82;82.71;99463.38;5128930;27;20050;-82
2021/08/07 03:11:19;;;;;;;2.15;1.50;;;;;;;16.81;82.83;99465.22;5127751;27;20087;-82
2021/08/07 03:13:46;;;;;;;3.10;2.10;;;;;;;16.84;83.06;99466.78;5105379;27;20052;-82
2021/08/07 03:16:13;;;;;;;4.10;1.95;;;;;;;16.84;82.79;99472.13;5132189;27;20161;-82
2021/08/07 03:18:40;;;;;;;3.30;2.10;;;;;;;16.80;82.42;99471.53;5125166;27;20107;-82
2021/08/07 03:21:07;;;;;;;4.03;1.90;;;;;;;16.78;82.65;99464.63;5138302;27;20043;-81
2021/08/07 03:23:33;;;;;;;3.33;2.10;;;;;;;16.74;82.56;99456.03;5151704;27;20049;-81
2021/08/07 03:26:02;;;;;;;4.38;2.00;;;;;;;16.74;83.13;99466.72;5131618;27;20043;-80
2021/08/07 03:28:33;;;;;;;6.30;1.80;;;;;;;16.75;82.94;99459.53;5143766;27;20044;-80
2021/08/07 03:31:00;;;;;;;2.13;1.85;;;;;;;16.77;83.07;99471.81;5147608;27;20070;-82
2021/08/07 03:33:27;;;;;;;5.35;1.92;;;;;;;16.79;83.02;99475.19;5135715;27;20852;-81
2021/08/07 03:35:54;;;;;;;3.67;1.92;;;;;;;16.83;83.07;99473.09;5134214;27;20046;-82
2021/08/07 03:38:23;;;;;;;3.97;2.00;;;;;;;16.87;82.79;99471.00;5136748;27;20051;-81
2021/08/07 03:40:50;;;;;;;3.58;2.05;;;;;;;16.89;82.59;99467.19;5148022;27;20147;-80
2021/08/07 03:43:17;;;;;;;4.55;1.77;;;;;;;16.92;82.73;99471.44;5146863;27;20138;-81
2021/08/07 03:45:44;;;;;;;2.67;1.77;;;;;;;16.95;82.34;99469.34;5139038;27;20254;-82
2021/08/07 03:48:10;;;;;;;5.85;2.20;;;;;;;16.99;82.22;99468.09;5138269;27;20134;-81
2021/08/07 03:50:38;;;;;;;3.70;1.58;;;;;;;17.00;81.97;99472.44;5127252;27;20053;-81
2021/08/07 03:53:05;;;;;;;3.42;1.63;;;;;;;17.01;82.10;99458.09;5137172;27;20043;-81
2021/08/07 03:55:31;;;;;;;4.22;1.70;;;;;;;16.98;81.87;99457.53;5139641;27;20039;-81
2021/08/07 03:57:59;;;;;;;2.40;1.60;;;;;;;16.97;82.13;99463.88;5143286;27;20106;-80
2021/08/07 04:00:28;;;;;;;4.28;1.77;;;;;;;16.97;82.64;99462.03;5132432;27;20053;-82
2021/08/07 04:02:55;;;;;;;3.42;1.75;;;;;;;16.98;82.65;99447.69;5131437;27;20131;-82
2021/08/07 04:05:24;;;;;;;2.20;1.60;;;;;;;17.01;82.72;99449.22;5131793;27;20058;-82
2021/08/07 04:07:51;;;;;;;3.65;1.80;;;;;;;17.03;83.01;99453.47;5114802;27;20479;-82
2021/08/07 04:10:19;;;;;;;4.60;1.80;;;;;;;16.98;82.33;99465.56;5116620;27;20068;-82
2021/08/07 04:12:45;;;;;;;3.80;2.10;;;;;;;16.88;82.81;99452.13;5131571;27;20043;-82
2021/08/07 04:15:12;;;;;;;3.47;2.20;;;;;;;16.83;83.27;99451.72;5135149;27;20065;-83
2021/08/07 04:17:39;;;;;;;3.10;2.05;;;;;;;16.80;83.70;99454.66;5132333;27;20139;-82
2021/08/07 04:20:10;;;;;;;4.63;2.10;;;;;;;16.82;84.06;99448.19;5126159;27;20039;-82
2021/08/07 04:22:38;;;;;;;4.78;1.90;;;;;;;16.88;84.00;99440.59;5138082;27;20122;-82
2021/08/07 04:25:06;;;;;;;3.53;2.13;;;;;;;16.91;83.88;99451.88;5151798;27;20054;-82
2021/08/07 04:27:33;;;;;;;4.15;1.95;;;;;;;16.95;83.46;99447.09;5151042;27;21419;-81
2021/08/07 04:30:02;;;;;;;4.90;1.90;;;;;;;17.00;83.13;99451.06;5145980;27;20040;-82
2021/08/07 04:32:29;;;;;;;4.10;1.60;;;;;;;17.03;82.59;99449.94;5151840;27;20043;-82
2021/08/07 04:34:55;;;;;;;5.45;1.92;;;;;;;17.06;82.68;99453.19;5141588;27;20071;-81
2021/08/07 04:37:22;;;;;;;4.43;2.20;;;;;;;17.08;82.31;99447.72;5149210;27;20049;-82
2021/08/07 04:39:52;;;;;;;2.63;2.05;;;;;;;17.11;82.07;99442.94;5148153;27;20054;-82
2021/08/07 04:42:18;;;;;;;3.17;1.90;;;;;;;17.14;82.29;99440.00;5141257;27;20068;-82
2021/08/07 04:44:45;;;;;;;3.20;1.95;;;;;;;17.14;81.93;99429.31;5155325;27;20110;-82
2021/08/07 04:47:12;;;;;;;4.00;1.90;;;;;;;17.15;81.88;99433.66;5149645;27;20067;-82
2021/08/07 04:49:39;;;;;;;3.33;1.90;;;;;;;17.18;82.00;99428.03;5150222;27;20043;-82
2021/08/07 04:52:06;;;;;;;3.75;2.15;;;;;;;17.22;81.80;99422.41;5150705;27;20068;-82
2021/08/07 04:54:32;;;;;;;2.40;1.80;;;;;;;17.27;81.92;99428.19;5152024;27;20118;-82
2021/08/07 04:56:59;;;;;;;2.22;1.73;;;;;;;17.28;82.03;99424.53;5141444;27;20043;-82
2021/08/07 04:59:26;;;;;;;3.35;1.70;;;;;;;17.32;81.41;99424.09;5139280;27;20058;-81
2021/08/07 05:01:53;;;;;;;2.70;1.65;;;;;;;17.39;81.16;99429.75;5148030;27;20095;-82
2021/08/07 05:04:20;;;;;;;4.18;1.83;;;;;;;17.40;81.49;99418.91;5144719;27;20048;-82
2021/08/07 05:06:46;;;;;;;8.05;1.80;;;;;;;17.46;80.52;99426.41;5151153;27;20058;-82
2021/08/07 05:09:13;;;;;;;12.68;7.70;;;;;;;17.49;79.97;99427.94;5132612;27;20035;-82
2021/08/07 05:11:40;;;;;;;3.20;1.80;;;;;;;17.51;80.09;99425.97;5141746;27;20066;-81
2021/08/07 05:14:06;;;;;;;2.85;1.77;;;;;;;17.56;80.04;99426.41;5141782;27;20039;-82
2021/08/07 05:16:34;;;;;;;7.53;1.90;;;;;;;17.59;79.59;99420.78;5130557;27;20043;-83
2021/08/07 05:19:00;;;;;;;4.22;2.22;;;;;;;17.62;79.47;99417.81;5131890;27;20420;-83
2021/08/07 05:21:31;;;;;;;4.78;1.88;;;;;;;17.64;79.42;99423.88;5138746;27;20046;-82
2021/08/07 05:23:57;;;;;;;5.43;2.00;;;;;;;17.69;79.17;99432.34;5135629;27;20054;-82
2021/08/07 05:26:24;;;;;;;3.67;1.50;;;;;;;17.75;79.18;99429.13;5132444;27;20056;-83
2021/08/07 05:28:53;;;;;;;2.35;1.60;;;;;;;17.83;78.70;99429.25;5140415;27;20046;-82
2021/08/07 05:31:19;;;;;;;2.95;1.58;;;;;;;17.86;78.35;99410.22;5127236;27;20081;-82
2021/08/07 05:33:47;;;;;;;4.00;1.75;;;;;;;17.95;77.89;99407.66;5129437;27;20105;-82
2021/08/07 05:36:13;;;;;;;4.05;1.95;;;;;;;17.98;77.81;99408.22;5117134;27;20051;-83
2021/08/07 05:38:40;;;;;;;5.35;1.90;;;;;;;18.03;77.61;99407.81;5131027;27;21938;-83
2021/08/07 05:41:07;;;;;;;4.68;2.03;;;;;;;18.10;76.88;99411.63;5133108;27;20124;-82
2021/08/07 05:43:34;;;;;;;3.67;1.98;;;;;;;18.15;76.62;99414.69;5132758;27;20058;-82
2021/08/07 05:46:00;;;;;;;4.25;1.88;;;;;;;18.18;76.50;99419.78;5138845;27;20114;-83
2021/08/07 05:48:27;;;;;;;2.50;1.70;;;;;;;18.25;76.72;99423.56;5148287;27;20038;-83
2021/08/07 05:50:54;;;;;;;4.00;1.98;;;;;;;18.31;76.87;99419.44;5145167;27;20110;-82
2021/08/07 05:53:20;;;;;;;3.40;1.73;;;;;;;18.36;77.16;99428.75;5143522;27;20043;-82
2021/08/07 05:55:47;;;;;;;2.55;2.10;;;;;;;18.42;76.59;99416.59;5127997;27;20145;-82
2021/08/07 05:58:14;;;;;;;4.25;2.10;;;;;;;18.45;76.88;99411.78;5133370;27;20043;-82
2021/08/07 06:00:40;;;;;;;4.70;2.38;;;;;;;18.50;76.91;99411.38;5140376;27;20059;-82
2021/08/07 06:03:07;;;;;;;4.07;2.38;;;;;;;18.52;77.01;99404.88;5147840;27;20047;-82
2021/08/07 06:05:34;;;;;;;4.07;2.15;;;;;;;18.53;76.90;99408.41;5141727;27;20474;-83
2021/08/07 06:08:00;;;;;;;5.18;2.10;;;;;;;18.55;76.53;99406.41;5137375;27;20047;-82
2021/08/07 06:10:27;;;;;;;3.13;2.15;;;;;;;18.60;76.15;99409.50;5132988;27;20035;-82
2021/08/07 06:12:54;;;;;;;5.43;2.03;;;;;;;18.63;76.01;99403.88;5135017;27;20061;-82
2021/08/07 06:15:22;;;;;;;4.63;2.35;;;;;;;18.62;76.04;99406.69;5123714;27;20058;-82
2021/08/07 06:17:49;;;;;;;3.45;2.35;;;;;;;18.68;75.53;99411.47;5130611;27;20064;-82
2021/08/07 06:20:16;;;;;;;3.45;2.10;;;;;;;18.71;75.39;99405.81;5131778;27;20048;-82
2021/08/07 06:22:43;;;;;;;3.63;2.17;;;;;;;18.74;75.60;99400.97;5138651;27;20051;-82
2021/08/07 06:25:10;;;;;;;3.50;2.10;;;;;;;18.83;75.65;99410.84;5130761;27;20100;-82
2021/08/07 06:27:37;;;;;;;3.95;2.33;;;;;;;18.93;75.85;99408.09;5126769;27;20052;-82
2021/08/07 06:30:04;;;;;;;4.68;2.30;;;;;;;19.01;75.17;99415.41;5129598;27;20065;-82
2021/08/07 06:32:30;;;;;;;3.92;2.60;;;;;;;19.11;74.14;99419.72;5128523;27;20047;-82
2021/08/07 06:34:57;;;;;;;3.40;2.33;;;;;;;19.18;73.77;99415.47;5127625;27;20485;-82
2021/08/07 06:37:24;;;;;;;3.10;2.30;;;;;;;19.30;73.76;99424.16;5129208;27;20043;-83
2021/08/07 06:39:51;;;;;;;2.50;2.00;;;;;;;19.55;73.25;99417.22;5131069;27;20042;-81
2021/08/07 06:42:17;;;;;;;3.80;1.95;;;;;;;19.88;72.34;99415.66;5118178;27;20078;-82
2021/08/07 06:44:44;;;;;;;7.00;2.40;;;;;;;20.12;70.96;99428.47;5132230;27;20142;-81
2021/08/07 06:47:10;;;;;;;2.28;2.03;;;;;;;20.27;69.94;99426.91;5128347;27;20106;-83
2021/08/07 06:49:39;;;;;;;4.60;1.98;;;;;;;20.35;68.32;99410.81;5128314;27;20040;-80
2021/08/07 06:52:07;;;;;;;5.30;2.20;;;;;;;20.38;68.05;99423.97;5127588;27;20047;-81
2021/08/07 06:54:36;;;;;;;;;;;;;;;20.48;68.17;99427.41;5128791;27;20572;-81
2021/08/07 06:57:03;;;;;;;5.80;2.20;;;;;;;20.57;67.55;99420.25;5128810;27;19929;-81
2021/08/07 06:59:30;;;;;;;4.68;2.25;;;;;;;20.59;68.04;99423.63;5130042;27;20173;-81
2021/08/07 07:01:56;;;;;;;2.83;1.90;;;;;;;20.56;68.21;99419.41;5128925;27;20118;-81
2021/08/07 07:04:24;;;;;;;3.67;2.05;;;;;;;20.47;66.94;99409.56;5126024;27;20066;-80
2021/08/07 07:06:51;;;;;;;3.83;1.90;;;;;;;20.44;68.19;99423.38;5140517;27;20043;-81
2021/08/07 07:09:17;;;;;;;4.45;2.40;;;;;;;20.43;68.74;99421.69;5131457;28;20039;-81
2021/08/07 07:11:44;;;;;;;3.10;2.10;;;;;;;20.46;68.65;99410.56;5127836;27;20143;-81
2021/08/07 07:14:11;;;;;;;3.22;2.50;;;;;;;20.48;68.35;99400.50;5132625;28;20061;-81
2021/08/07 07:16:37;;;;;;;2.67;1.90;;;;;;;20.49;68.53;99402.19;5134643;28;20043;-82
2021/08/07 07:19:04;;;;;;;4.25;1.95;;;;;;;20.54;68.38;99399.03;5134298;27;20178;-81
2021/08/07 07:21:31;;;;;;;4.45;1.90;;;;;;;20.55;68.35;99403.41;5139362;27;20398;-81
2021/08/07 07:23:58;;;;;;;3.90;2.03;;;;;;;20.57;67.96;99406.78;5133490;28;20043;-81
2021/08/07 07:26:27;;;;;;;3.55;2.00;;;;;;;20.54;68.16;99405.25;5138500;27;20045;-80
2021/08/07 07:28:54;;;;;;;4.28;1.95;;;;;;;20.52;68.36;99406.41;5143298;28;20075;-81
2021/08/07 07:31:22;;;;;;;4.63;2.00;;;;;;;20.51;67.80;99404.72;5141471;28;20051;-82
2021/08/07 07:33:49;;;;;;;4.32;1.92;;;;;;;20.53;68.04;99405.41;5145233;28;20126;-80
2021/08/07 07:36:15;;;;;;;4.15;1.83;;;;;;;20.59;67.27;99408.31;5129120;28;20058;-82
2021/08/07 07:38:44;;;;;;;4.07;1.92;;;;;;;20.62;67.49;99404.44;5127012;28;20100;-82
2021/08/07 07:41:12;;;;;;;3.95;1.70;;;;;;;20.72;68.26;99413.25;5129471;27;20043;-82
2021/08/07 07:43:39;;;;;;;3.33;1.95;;;;;;;20.80;67.74;99401.69;5131758;28;20482;-81
2021/08/07 07:46:06;;;;;;;4.43;1.90;;;;;;;20.84;67.48;99397.66;5124829;27;20057;-82
2021/08/07 07:48:35;;;;;;;3.85;2.20;;;;;;;20.94;66.60;99398.38;5129224;27;20039;-81
2021/08/07 07:51:01;;;;;;;4.53;2.30;;;;;;;20.97;66.02;99406.13;5123430;28;20039;-81
2021/08/07 07:53:28;;;;;;;3.08;1.80;;;;;;;20.89;66.09;99406.13;5129061;27;20051;-82
2021/08/07 07:55:55;;;;;;;3.95;1.70;;;;;;;20.85;66.20;99410.13;5140527;27;20062;-82
2021/08/07 07:58:21;;;;;;;2.97;1.50;;;;;;;20.83;66.59;99410.28;5144921;27;20099;-82
2021/08/07 08:00:48;;;;;;;5.65;1.98;;;;;;;20.89;65.74;99406.13;5146169;27;20088;-83
2021/08/07 08:03:15;;;;;;;1.58;1.40;;;;;;;20.74;65.53;99397.81;5149745;27;20066;-82
2021/08/07 08:05:42;;;;;;;6.13;1.65;;;;;;;20.76;66.04;99395.81;5141398;27;20359;-81
2021/08/07 08:08:08;;;;;;;7.45;1.63;;;;;;;20.77;65.81;99399.34;5133918;27;20122;-83
2021/08/07 08:10:36;;;;;;;6.53;1.60;;;;;;;20.79;66.09;99400.84;5139060;27;20035;-86
2021/08/07 08:13:03;;;;;;;3.53;1.35;;;;;;;20.80;66.04;99399.00;5142851;27;20107;-83
2021/08/07 08:15:29;;;;;;;3.25;1.75;;;;;;;20.90;66.02;99402.41;5149755;27;20071;-82
2021/08/07 08:17:56;;;;;;;2.58;1.70;;;;;;;21.03;65.45;99397.41;5142876;27;20626;-82
2021/08/07 08:20:25;;;;;;;5.18;1.73;;;;;;;21.12;64.37;99393.75;5134190;27;20043;-84
2021/08/07 08:22:52;;;;;;;2.50;1.23;;;;;;;21.20;64.93;99398.34;5128562;27;20475;-84
2021/08/07 08:25:18;;;;;;;3.28;1.60;;;;;;;21.34;63.77;99390.47;5131025;27;20061;-82
2021/08/07 08:27:45;;;;;;;3.92;1.98;;;;;;;21.45;61.97;99383.91;5129146;27;20051;-82
2021/08/07 08:30:13;;;;;;;4.10;1.40;;;;;;;21.54;62.49;99392.88;5128669;27;20208;-85
2021/08/07 08:32:40;;;;;;;4.05;1.52;;;;;;;21.67;60.85;99404.00;5126723;27;20057;-85
2021/08/07 08:35:07;;;;;;;3.38;1.65;;;;;;;21.68;60.30;99398.44;5129932;27;20043;-83
2021/08/07 08:37:37;;;;;;;3.67;1.50;;;;;;;21.64;61.14;99385.47;5127625;27;20070;-83
2021/08/07 08:40:05;;;;;;;4.45;1.67;;;;;;;21.61;60.62;99386.63;5126263;27;20043;-84
2021/08/07 08:42:34;;;;;;;3.15;1.20;;;;;;;21.53;60.80;99383.09;5126573;27;20047;-83
2021/08/07 08:45:03;;;;;;;3.25;1.50;;;;;;;21.53;61.28;99380.41;5128974;27;20043;-83
2021/08/07 08:47:29;;;;;;;3.97;1.40;;;;;;;21.72;61.10;99380.09;5112425;27;20086;-82
2021/08/07 08:49:56;;;;;;;4.20;1.40;;;;;;;21.93;60.61;99366.09;5123996;27;20401;-81
2021/08/07 08:52:29;;;;;;;4.93;1.30;;;;;;;22.02;59.76;99367.81;5128340;27;20126;-81
2021/08/07 08:54:56;;;;;;;3.90;1.50;;;;;;;22.12;60.36;99363.09;5124492;27;20063;-81
2021/08/07 08:57:24;;;;;;;4.78;1.55;;;;;;;22.37;59.46;99380.06;5130137;27;20043;-83
2021/08/07 08:59:52;;;;;;;5.93;1.42;;;;;;;22.53;58.83;99377.31;5132065;27;20069;-84
2021/08/07 09:02:19;;;;;;;2.50;1.20;;;;;;;22.63;58.20;99375.28;5129377;27;20062;-84
2021/08/07 09:04:46;;;;;;;3.67;1.20;;;;;;;22.71;58.76;99364.44;5130637;27;20108;-83
2021/08/07 09:07:16;;;;;;;3.90;1.47;;;;;;;22.69;57.78;99361.06;5125615;27;20048;-84
2021/08/07 09:09:45;;;;;;;5.13;1.38;;;;;;;22.53;57.36;99371.91;5128807;27;20210;-84
2021/08/07 09:12:13;;;;;;;1.73;1.13;;;;;;;22.47;58.06;99369.94;5125889;27;20067;-82
2021/08/07 09:14:44;;;;;;;3.40;1.30;;;;;;;22.36;57.77;99370.28;5131347;27;20054;-82
2021/08/07 09:17:20;;;;;;;3.67;1.50;;;;;;;22.37;58.00;99364.72;5127387;27;20047;-81
2021/08/07 09:19:52;;;;;;;5.38;1.65;;;;;;;22.44;58.18;99362.19;5126493;27;20043;-85
2021/08/07 09:22:30;;;;;;;3.55;1.17;;;;;;;22.62;57.92;99353.84;5128902;27;20077;-82
2021/08/07 09:25:10;;;;;;;5.10;1.50;;;;;;;22.84;56.91;99360.38;5149385;27;20047;-83
2021/08/07 09:27:42;;;;;;;4.72;1.60;;;;;;;22.91;56.90;99355.97;5149981;27;20130;-83
2021/08/07 09:30:18;;;;;;;2.97;1.20;;;;;;;22.82;56.54;99351.63;5152524;27;20046;-83
2021/08/07 09:32:49;;;;;;;4.60;1.10;;;;;;;22.71;56.65;99350.94;5150151;27;20134;-83
2021/08/07 09:35:21;;;;;;;5.85;1.38;;;;;;;22.74;56.89;99344.38;5157281;27;20042;-83
2021/08/07 09:38:07;;;;;;;6.22;1.35;;;;;;;22.75;56.83;99336.09;5160216;27;20039;-84
2021/08/07 09:40:42;;;;;;;6.70;1.50;;;;;;;22.88;57.79;99340.09;5154791;27;20053;-82
2021/08/07 09:43:10;;;;;;;3.90;1.40;;;;;;;22.96;56.75;99335.53;5156588;27;20053;-85
2021/08/07 09:45:38;;;;;;;2.20;1.17;;;;;;;23.01;56.85;99333.13;5168555;27;20118;-85
2021/08/07 09:48:09;;;;;;;4.70;1.50;;;;;;;23.13;55.72;99332.72;5166080;27;20043;-84
2021/08/07 09:50:49;;;;;;;2.78;1.20;;;;;;;23.19;56.08;99332.00;5153477;27;20049;-85
2021/08/07 09:53:19;;;;;;;3.65;1.30;;;;;;;23.16;56.06;99343.16;5153483;27;20035;-84
2021/08/07 09:56:04;;;;;;;4.45;1.30;;;;;;;23.09;55.46;99348.44;5166655;27;20023;-89
2021/08/07 09:58:32;;;;;;;4.68;1.20;;;;;;;23.15;55.21;99355.81;5178285;27;20057;-88
2021/08/07 10:01:34;;;;;;;4.13;1.20;;;;;;;23.11;55.32;99340.16;5177954;27;20035;-85
2021/08/07 10:04:11;;;;;;;2.92;1.42;;;;;;;23.01;55.02;99340.38;5154942;27;20033;-87
2021/08/07 10:06:48;;;;;;;6.20;1.15;;;;;;;22.90;56.32;99346.19;5169596;27;20087;-87
2021/08/07 10:09:31;;;;;;;2.70;1.23;;;;;;;22.82;56.23;99340.84;5266714;22;20055;-84
2021/08/07 10:12:07;;;;;;;3.03;1.23;;;;;;;22.73;56.35;99345.38;5074214;28;20119;-85
2021/08/07 10:14:36;;;;;;;3.25;1.33;;;;;;;22.60;56.79;99351.34;5076625;28;20041;-88
2021/08/07 10:17:06;;;;;;;3.22;1.30;;;;;;;22.47;57.73;99332.16;5072817;28;20060;-86
2021/08/07 10:19:34;;;;;;;5.93;1.23;;;;;;;22.38;58.00;99339.41;5074940;28;20047;-86
2021/08/07 10:22:05;;;;;;;4.22;1.70;;;;;;;22.38;58.74;99342.13;5073403;28;20528;-85
2021/08/07 10:24:37;;;;;;;4.53;1.77;;;;;;;22.22;58.55;99344.84;5071241;28;20071;-85
2021/08/07 10:27:04;;;;;;;4.35;1.27;;;;;;;22.08;59.40;99342.03;5084197;28;20040;-87
2021/08/07 10:29:39;;;;;;;3.58;1.40;;;;;;;22.08;59.90;99352.81;5086115;28;20037;-85
2021/08/07 10:32:07;;;;;;;3.22;1.30;;;;;;;22.10;58.97;99348.94;5080554;28;20041;-87
2021/08/07 10:34:39;;;;;;;3.88;1.60;;;;;;;22.09;59.30;99351.78;5083241;28;20076;-85
2021/08/07 10:37:05;;;;;;;4.03;1.55;;;;;;;22.02;59.39;99347.09;5086748;28;20044;-88
2021/08/07 10:39:33;;;;;;;3.38;1.48;;;;;;;21.98;59.28;99339.47;5084303;28;20148;-89
2021/08/07 10:42:03;;;;;;;3.15;1.70;;;;;;;21.96;59.94;99325.31;5088414;28;20048;-87
2021/08/07 10:44:31;;;;;;;4.82;1.40;;;;;;;21.99;60.09;99325.88;5093475;28;21261;-85
2021/08/07 10:46:59;;;;;;;3.33;1.30;;;;;;;21.98;59.98;99307.13;5091824;28;20055;-82
2021/08/07 10:49:41;;;;;;;4.85;1.63;;;;;;;22.11;59.34;99310.16;5086894;28;20025;-88
2021/08/07 10:52:20;;;;;;;5.53;1.50;;;;;;;22.21;59.86;99321.59;5096545;28;20024;-88
2021/08/07 11:08:23;;;;;;;3.88;2.15;;;;;;;22.21;58.70;99328.84;5046344;28;20041;-87
2021/08/07 11:11:32;;;;;;;4.78;1.52;;;;;;;22.06;59.08;99331.41;5048445;28;20398;-87
2021/08/07 11:14:20;;;;;;;5.43;2.00;;;;;;;21.91;59.69;99322.28;5035415;28;20068;-80
2021/08/07 11:17:10;;;;;;;5.95;1.98;;;;;;;21.82;60.80;99332.25;5033825;28;20108;-80
2021/08/07 11:20:14;;;;;;;6.40;1.90;;;;;;;21.81;61.03;99333.25;5022636;28;20054;-80
2021/08/07 11:22:43;;;;;;;3.33;1.67;;;;;;;21.78;60.46;99330.06;5034369;28;20045;-80
2021/08/07 11:25:18;;;;;;;5.03;1.70;;;;;;;21.71;61.66;99324.53;5031835;28;20046;-80
2021/08/07 11:27:55;;;;;;;6.57;1.35;;;;;;;21.73;59.47;99324.31;5031507;28;20045;-80
2021/08/07 11:30:32;;;;;;;4.50;1.40;;;;;;;21.67;58.62;99318.63;5030789;28;20130;-81
2021/08/07 11:33:00;;;;;;;5.35;1.40;;;;;;;21.68;58.88;99322.16;5030334;28;20083;-81
2021/08/07 11:35:37;;;;;;;5.35;1.48;;;;;;;21.73;58.67;99319.78;5032473;28;20117;-80
2021/08/07 11:38:06;;;;;;;4.22;1.20;;;;;;;21.81;58.59;99310.88;5041486;28;20046;-80
2021/08/07 11:40:47;;;;;;;5.32;1.38;;;;;;;21.91;58.13;99304.28;5052805;28;20048;-81
2021/08/07 11:43:13;;;;;;;;;;;;;;;21.96;58.08;99299.22;5053019;28;20084;-81
2021/08/07 11:45:41;;;;;;;3.28;2.30;;;;;;;21.98;57.85;99291.81;5053850;28;20416;-81
2021/08/07 11:48:09;;;;;;;4.05;1.95;;;;;;;22.01;57.86;99296.88;5042159;28;20779;-81
2021/08/07 11:50:43;;;;;;;6.00;1.40;;;;;;;22.03;57.84;99289.47;5039009;28;20045;-82
2021/08/07 11:53:16;;;;;;;3.42;1.55;;;;;;;22.07;57.81;99281.03;5037827;28;20069;-83
2021/08/07 11:55:42;;;;;;;4.38;1.40;;;;;;;22.13;57.75;99275.78;5037968;28;20041;-85
2021/08/07 11:58:11;;;;;;;4.22;1.20;;;;;;;22.14;57.70;99268.53;5036635;28;20045;-83